createdAt,value
2023-03-02T00:00:07.420Z,96.6
2023-03-02T00:02:33.452Z,96.8
2023-03-02T00:04:59.626Z,97
2023-03-02T00:07:25.727Z,97
2023-03-02T00:09:51.737Z,97.1
2023-03-02T00:12:16.926Z,97.2
2023-03-02T00:14:43.062Z,97.3
2023-03-02T00:17:09.142Z,97.3
2023-03-02T00:19:35.149Z,97.3
2023-03-02T00:22:01.306Z,97.5
2023-03-02T00:24:27.347Z,97.4
2023-03-02T00:26:53.432Z,97.3
2023-03-02T00:29:19.435Z,97.3
2023-03-02T00:31:45.709Z,97.2
2023-03-02T00:34:11.838Z,97.3
2023-03-02T00:36:37.878Z,97.3
2023-03-02T00:39:04.004Z,97.3
2023-03-02T00:41:30.107Z,97.4
2023-03-02T00:43:55.163Z,97.2
2023-03-02T00:46:21.310Z,97.3
2023-03-02T00:48:47.471Z,97.6
2023-03-02T00:51:13.494Z,97.7
2023-03-02T00:53:39.611Z,97.4
2023-03-02T00:56:05.653Z,97.3
2023-03-02T00:58:31.801Z,97.5
2023-03-02T01:00:57.883Z,97.6
2023-03-02T01:03:23.836Z,97.6
2023-03-02T01:05:50.089Z,97.6
2023-03-02T01:08:16.182Z,97.7
2023-03-02T01:10:42.300Z,97.9
2023-03-02T01:13:08.321Z,97.9
2023-03-02T01:15:33.464Z,98
2023-03-02T01:17:59.480Z,97.9
2023-03-02T01:20:25.737Z,98
2023-03-02T01:22:51.669Z,98.2
2023-03-02T01:25:17.947Z,98.2
2023-03-02T01:27:43.974Z,98.2
2023-03-02T01:30:10.010Z,98.2
2023-03-02T01:32:36.106Z,98.1
2023-03-02T01:35:02.206Z,98
2023-03-02T01:37:28.384Z,98
2023-03-02T01:39:54.462Z,98.1
2023-03-02T01:42:20.602Z,98.1
2023-03-02T01:44:46.697Z,98.3
2023-03-02T01:47:11.785Z,98.3
2023-03-02T01:49:37.875Z,98.5
2023-03-02T01:52:03.988Z,98.5
2023-03-02T01:54:30.038Z,98.5
2023-03-02T01:56:56.179Z,98.7
2023-03-02T01:59:22.202Z,98.5
2023-03-02T02:01:48.372Z,98.7
2023-03-02T02:04:14.481Z,98.6
2023-03-02T02:06:40.534Z,98.6
2023-03-02T02:09:06.628Z,98.6
2023-03-02T02:11:32.838Z,98.6
2023-03-02T02:13:58.858Z,98.6
2023-03-02T02:16:24.811Z,98.8
2023-03-02T02:18:50.130Z,98.9
2023-03-02T02:21:16.164Z,98.9
2023-03-02T02:23:42.145Z,99
2023-03-02T02:26:08.199Z,99.1
2023-03-02T02:28:34.425Z,99.1
2023-03-02T02:31:00.529Z,99.1
2023-03-02T02:33:26.654Z,99.2
2023-03-02T02:35:52.763Z,99.3
2023-03-02T02:38:18.794Z,99.3
2023-03-02T02:40:44.920Z,99.5
2023-03-02T02:43:11.023Z,99.5
2023-03-02T02:45:37.106Z,99.6
2023-03-02T02:48:03.145Z,99.7
2023-03-02T02:50:28.171Z,99.7
2023-03-02T02:52:54.295Z,99.7
2023-03-02T02:55:20.382Z,99.7
2023-03-02T02:57:46.470Z,99.6
2023-03-02T03:00:12.569Z,99.5
2023-03-02T03:02:38.687Z,99.6
2023-03-02T03:05:04.771Z,99.7
2023-03-02T03:07:30.883Z,99.7
2023-03-02T03:09:56.976Z,99.7
2023-03-02T03:12:23.093Z,99.5
2023-03-02T03:14:49.225Z,99.6
2023-03-02T03:17:15.263Z,99.7
2023-03-02T03:19:41.367Z,100
2023-03-02T03:22:06.468Z,99.8
2023-03-02T03:24:32.563Z,99.8
2023-03-02T03:26:58.661Z,99.7
2023-03-02T03:29:24.758Z,99.6
2023-03-02T03:31:50.856Z,99.6
2023-03-02T03:34:16.956Z,99.8
2023-03-02T03:36:43.056Z,100
2023-03-02T03:39:09.142Z,99.9
2023-03-02T03:41:35.314Z,100
2023-03-02T03:44:01.331Z,100
2023-03-02T03:46:27.430Z,100
2023-03-02T03:48:53.529Z,100
2023-03-02T03:51:19.619Z,100
2023-03-02T03:53:44.742Z,100
2023-03-02T03:56:10.840Z,100
2023-03-02T03:58:36.940Z,100
2023-03-02T04:01:03.032Z,100
2023-03-02T04:03:29.133Z,100
2023-03-02T04:05:55.217Z,100
2023-03-02T04:08:21.326Z,100
2023-03-02T04:10:47.419Z,100
2023-03-02T04:13:13.520Z,100
2023-03-02T04:15:39.598Z,100
2023-03-02T04:18:05.719Z,100
2023-03-02T04:20:31.812Z,100
2023-03-02T04:22:57.917Z,100
2023-03-02T04:25:23.025Z,100
2023-03-02T04:27:49.131Z,100
2023-03-02T04:30:15.221Z,100
2023-03-02T04:32:41.316Z,100
2023-03-02T04:35:07.426Z,100
2023-03-02T04:37:33.516Z,100
2023-03-02T04:39:59.655Z,100
2023-03-02T04:42:25.753Z,100
2023-03-02T04:44:51.892Z,100
2023-03-02T04:47:17.951Z,100
2023-03-02T04:49:44.000Z,100
2023-03-02T04:52:10.100Z,100
2023-03-02T04:54:36.209Z,100
2023-03-02T04:57:01.319Z,100
2023-03-02T04:59:27.412Z,100
2023-03-02T05:01:53.502Z,100
2023-03-02T05:04:19.595Z,100
2023-03-02T05:06:45.702Z,100
2023-03-02T05:09:11.900Z,100
2023-03-02T05:11:37.923Z,100
2023-03-02T05:14:04.060Z,100
2023-03-02T05:16:30.131Z,100
2023-03-02T05:18:56.202Z,100
2023-03-02T05:21:22.302Z,100
2023-03-02T05:23:48.392Z,100
2023-03-02T05:26:14.558Z,100
2023-03-02T05:28:39.592Z,100
2023-03-02T05:31:05.692Z,100
2023-03-02T05:33:31.801Z,100
2023-03-02T05:35:57.878Z,100
2023-03-02T05:38:23.986Z,100
2023-03-02T05:40:50.070Z,100
2023-03-02T05:43:16.241Z,100
2023-03-02T05:45:42.280Z,100
2023-03-02T05:48:08.373Z,100
2023-03-02T05:50:34.496Z,100
2023-03-02T05:53:00.544Z,100
2023-03-02T05:55:26.669Z,100
2023-03-02T05:57:52.747Z,100
2023-03-02T06:00:18.853Z,100
2023-03-02T06:02:44.931Z,100
2023-03-02T06:05:11.033Z,100
2023-03-02T06:07:37.177Z,100
2023-03-02T06:10:03.230Z,100
2023-03-02T06:12:29.320Z,100
2023-03-02T06:14:54.434Z,100
2023-03-02T06:17:20.554Z,100
2023-03-02T06:19:46.655Z,100
2023-03-02T06:22:12.740Z,100
2023-03-02T06:24:38.825Z,100
2023-03-02T06:27:04.955Z,100
2023-03-02T06:29:31.033Z,100
2023-03-02T06:31:57.168Z,100
2023-03-02T06:34:23.265Z,100
2023-03-02T06:36:49.366Z,100
2023-03-02T06:39:15.425Z,100
2023-03-02T06:41:41.505Z,100
2023-03-02T06:44:07.611Z,100
2023-03-02T06:48:58.902Z,100
2023-03-02T06:51:24.966Z,100
2023-03-02T06:53:51.024Z,100
2023-03-02T06:56:17.113Z,100
2023-03-02T06:58:43.275Z,100
2023-03-02T07:01:09.374Z,100
2023-03-02T07:03:35.401Z,100
2023-03-02T07:06:01.514Z,100
2023-03-02T07:08:27.603Z,100
2023-03-02T07:10:53.757Z,100
2023-03-02T07:13:19.793Z,100
2023-03-02T07:15:45.898Z,100
2023-03-02T07:18:10.990Z,100
2023-03-02T07:20:37.114Z,100
2023-03-02T07:23:03.203Z,99.8
2023-03-02T07:25:29.301Z,99.7
2023-03-02T07:27:55.387Z,99.5
2023-03-02T07:30:21.493Z,99.4
2023-03-02T07:32:47.597Z,99
2023-03-02T07:35:13.695Z,98.8
2023-03-02T07:37:39.833Z,98.6
2023-03-02T07:40:05.893Z,98.3
2023-03-02T07:42:31.981Z,98.1
2023-03-02T07:44:58.077Z,97.7
2023-03-02T07:47:24.177Z,97.1
2023-03-02T07:49:49.287Z,96.5
2023-03-02T07:52:15.383Z,96.1
2023-03-02T07:57:07.579Z,95.7
2023-03-02T07:59:33.674Z,95.6
2023-03-02T08:01:59.834Z,95.7
2023-03-02T08:04:25.917Z,95.7
2023-03-02T08:06:51.971Z,95.4
2023-03-02T08:09:18.092Z,95.2
2023-03-02T08:11:44.163Z,95.1
2023-03-02T08:14:10.271Z,95
2023-03-02T08:16:36.394Z,94.8
2023-03-02T08:19:02.453Z,94.5
2023-03-02T08:21:27.580Z,94.6
2023-03-02T08:23:53.734Z,94.5
2023-03-02T08:26:19.770Z,94.3
2023-03-02T08:28:45.859Z,94
2023-03-02T08:31:12.007Z,93.8
2023-03-02T08:33:38.110Z,93.8
2023-03-02T08:36:04.219Z,93.4
2023-03-02T08:38:30.338Z,93.1
2023-03-02T08:40:56.457Z,92.9
2023-03-02T08:43:22.485Z,92.2
2023-03-02T08:45:48.613Z,92.1
2023-03-02T08:48:14.735Z,91.7
2023-03-02T08:50:40.797Z,91
2023-03-02T08:53:05.876Z,90.7
2023-03-02T08:55:31.986Z,90.3
2023-03-02T08:57:58.089Z,89.9
2023-03-02T09:00:24.267Z,88.6
2023-03-02T09:02:50.257Z,87.8
2023-03-02T09:05:16.336Z,87.4
2023-03-02T09:07:42.444Z,87.1
2023-03-02T09:10:08.524Z,87.1
2023-03-02T09:12:34.632Z,86.2
2023-03-02T09:15:00.733Z,86
2023-03-02T09:17:26.851Z,85.6
2023-03-02T09:19:53.035Z,85.3
2023-03-02T09:22:19.027Z,85
2023-03-02T09:24:44.162Z,84.5
2023-03-02T09:27:10.369Z,83.8
2023-03-02T09:29:36.327Z,83.2
2023-03-02T09:34:28.576Z,82.5
2023-03-02T09:36:54.663Z,82.3
2023-03-02T09:39:20.790Z,82.3
2023-03-02T09:41:46.805Z,81.6
2023-03-02T09:44:12.911Z,81.4
2023-03-02T09:46:39.076Z,81.2
2023-03-02T09:49:05.247Z,80.3
2023-03-02T09:51:31.238Z,80.2
2023-03-02T09:53:57.303Z,80.1
2023-03-02T09:58:48.545Z,79.9
2023-03-02T10:01:14.598Z,79.8
2023-03-02T10:03:40.746Z,79.3
2023-03-02T10:06:06.789Z,79.2
2023-03-02T10:08:32.886Z,78.5
2023-03-02T10:10:59.013Z,78.5
2023-03-02T10:13:25.103Z,78.3
2023-03-02T10:15:51.207Z,78.5
2023-03-02T10:18:17.335Z,78.1
2023-03-02T10:20:43.353Z,77.7
2023-03-02T10:23:09.463Z,77.7
2023-03-02T10:25:35.556Z,77.4
2023-03-02T10:28:01.651Z,77
2023-03-02T10:30:26.766Z,77
2023-03-02T10:32:52.853Z,76.8
2023-03-02T10:35:18.964Z,76.4
2023-03-02T10:37:45.079Z,75.9
2023-03-02T10:40:11.224Z,75.3
2023-03-02T10:42:37.331Z,75.6
2023-03-02T10:45:03.333Z,74.9
2023-03-02T10:47:29.498Z,75.5
2023-03-02T10:49:55.540Z,75.3
2023-03-02T10:52:21.633Z,74.9
2023-03-02T10:54:47.711Z,74.7
2023-03-02T10:57:13.822Z,74.7
2023-03-02T10:59:39.968Z,74
2023-03-02T11:02:05.022Z,74
2023-03-02T11:04:31.124Z,74.3
2023-03-02T11:06:57.220Z,73.7
2023-03-02T11:09:23.310Z,73.6
2023-03-02T11:11:49.408Z,73.6
2023-03-02T11:14:15.506Z,73.5
2023-03-02T11:16:41.597Z,73.1
2023-03-02T11:19:07.718Z,72.9
2023-03-02T11:21:33.799Z,72.8
2023-03-02T11:23:59.896Z,72.8
2023-03-02T11:26:26.146Z,73
2023-03-02T11:28:52.168Z,72.8
2023-03-02T11:31:18.238Z,72.9
2023-03-02T11:33:43.491Z,71.8
2023-03-02T11:36:09.554Z,71.7
2023-03-02T11:38:35.604Z,71.7
2023-03-02T11:41:01.785Z,71.7
2023-03-02T11:43:27.811Z,71.2
2023-03-02T11:45:54.093Z,71.3
2023-03-02T11:48:19.975Z,71.9
2023-03-02T11:50:45.997Z,71.1
2023-03-02T11:53:12.152Z,70.2
2023-03-02T11:55:38.337Z,69.9
2023-03-02T11:58:04.276Z,70.3
2023-03-02T12:00:30.539Z,70.3
2023-03-02T12:02:56.619Z,69.8
2023-03-02T12:05:21.559Z,69.8
2023-03-02T12:07:47.678Z,69.7
2023-03-02T12:10:13.750Z,69.4
2023-03-02T12:12:39.842Z,69.6
2023-03-02T12:15:06.049Z,69.6
2023-03-02T12:17:32.192Z,69.2
2023-03-02T12:19:58.295Z,68.7
2023-03-02T12:22:24.392Z,68.5
2023-03-02T12:24:50.497Z,67.6
2023-03-02T12:27:16.657Z,67.9
2023-03-02T12:29:42.704Z,67.6
2023-03-02T12:32:08.718Z,67.5
2023-03-02T12:34:34.864Z,67.9
2023-03-02T12:36:59.999Z,67.5
2023-03-02T12:39:26.098Z,67.6
2023-03-02T12:41:52.156Z,68.1
2023-03-02T12:44:18.234Z,67.8
2023-03-02T12:46:44.423Z,68.2
2023-03-02T12:49:10.377Z,68.5
2023-03-02T12:51:36.523Z,67.6
2023-03-02T12:54:02.541Z,67.1
2023-03-02T12:56:28.752Z,66.5
2023-03-02T12:58:54.798Z,66.2
2023-03-02T13:01:20.934Z,65.7
2023-03-02T13:03:46.882Z,66.2
2023-03-02T13:06:13.069Z,66.3
2023-03-02T13:08:38.098Z,65.5
2023-03-02T13:11:04.219Z,65.8
2023-03-02T13:13:30.291Z,65.3
2023-03-02T13:15:56.372Z,65.6
2023-03-02T13:18:22.601Z,65.8
2023-03-02T13:20:48.597Z,65.6
2023-03-02T13:23:14.676Z,65.5
2023-03-02T13:25:40.765Z,65.8
2023-03-02T13:28:06.895Z,65.6
2023-03-02T13:30:33.018Z,65.3
2023-03-02T13:32:59.076Z,65.9
2023-03-02T13:35:25.196Z,65.2
2023-03-02T13:37:51.371Z,65.1
2023-03-02T13:40:16.386Z,65
2023-03-02T13:42:42.477Z,64.7
2023-03-02T13:45:08.669Z,64.6
2023-03-02T13:47:34.754Z,64.9
2023-03-02T13:50:00.772Z,64.5
2023-03-02T13:52:26.830Z,64.7
2023-03-02T13:54:52.996Z,64.6
2023-03-02T13:57:19.024Z,64.8
2023-03-02T13:59:45.128Z,64.5
2023-03-02T14:02:11.299Z,64.5
2023-03-02T14:04:37.302Z,64.5
2023-03-02T14:07:03.422Z,63.6
2023-03-02T14:09:29.693Z,63.9
2023-03-02T14:11:54.700Z,63.9
2023-03-02T14:14:20.808Z,64.4
2023-03-02T14:16:46.960Z,64.2
2023-03-02T14:19:12.941Z,63.8
2023-03-02T14:21:39.112Z,63.4
2023-03-02T14:24:05.148Z,63.6
2023-03-02T14:26:31.171Z,63.3
2023-03-02T14:28:57.271Z,63.3
2023-03-02T14:31:23.352Z,63.1
2023-03-02T14:33:49.550Z,63
2023-03-02T14:36:15.654Z,63.4
2023-03-02T14:38:41.705Z,63.6
2023-03-02T14:41:07.895Z,63.8
2023-03-02T14:43:32.869Z,63.4
2023-03-02T14:45:58.953Z,63.2
2023-03-02T14:48:25.055Z,63.2
2023-03-02T14:50:51.154Z,62.9
2023-03-02T14:53:17.297Z,62.8
2023-03-02T14:55:43.486Z,61.9
2023-03-02T14:58:09.491Z,61.6
2023-03-02T15:00:35.526Z,61.1
2023-03-02T15:03:01.730Z,61.5
2023-03-02T15:05:27.918Z,61.9
2023-03-02T15:07:53.837Z,62.8
2023-03-02T15:10:19.962Z,63
2023-03-02T15:12:46.081Z,62.9
2023-03-02T15:15:11.166Z,62.6
2023-03-02T15:17:37.252Z,62.5
2023-03-02T15:20:03.329Z,63.2
2023-03-02T15:22:29.455Z,63.1
2023-03-02T15:24:55.560Z,63.6
2023-03-02T15:27:21.624Z,63.5
2023-03-02T15:29:47.713Z,63.7
2023-03-02T15:32:13.820Z,63.7
2023-03-02T15:34:39.905Z,63.5
2023-03-02T15:37:06.138Z,63.7
2023-03-02T15:39:32.172Z,63.7
2023-03-02T15:41:58.339Z,63.3
2023-03-02T15:44:24.430Z,63.4
2023-03-02T15:46:49.500Z,63.4
2023-03-02T15:49:15.499Z,63.4
2023-03-02T15:51:41.581Z,63.2
2023-03-02T15:54:07.667Z,63.5
2023-03-02T15:56:33.750Z,63.9
2023-03-02T15:58:59.847Z,64
2023-03-02T16:01:26.144Z,64.6
2023-03-02T16:03:52.185Z,64.8
2023-03-02T16:06:18.133Z,65
2023-03-02T16:08:44.219Z,65.2
2023-03-02T16:11:10.329Z,65.5
2023-03-02T16:13:36.488Z,65.9
2023-03-02T16:16:02.535Z,65.8
2023-03-02T16:20:53.754Z,66.5
2023-03-02T16:23:19.845Z,67.2
2023-03-02T16:25:45.908Z,67.1
2023-03-02T16:30:38.204Z,67.7
2023-03-02T16:33:03.227Z,68.2
2023-03-02T16:35:29.383Z,68.3
2023-03-02T16:37:55.611Z,68.8
2023-03-02T16:40:21.517Z,68.5
2023-03-02T16:42:47.635Z,68.9
2023-03-02T16:45:13.771Z,69.3
2023-03-02T16:47:39.809Z,69.4
2023-03-02T16:50:05.890Z,69.5
2023-03-02T16:52:32.108Z,69.6
2023-03-02T16:54:58.211Z,70
2023-03-02T16:57:24.182Z,70
2023-03-02T17:02:16.376Z,71.2
2023-03-02T17:04:41.491Z,71.2
2023-03-02T17:07:07.710Z,72
2023-03-02T17:09:32.833Z,72.9
2023-03-02T17:11:57.968Z,73.1
2023-03-02T17:14:23.105Z,73.6
2023-03-02T17:16:48.185Z,74.3
2023-03-02T17:19:13.304Z,74.5
2023-03-02T17:21:38.444Z,74.8
2023-03-02T17:24:03.538Z,74.4
2023-03-02T17:26:28.662Z,75.3
2023-03-02T17:28:54.752Z,76.1
2023-03-02T17:31:20.843Z,76.5
2023-03-02T17:33:46.944Z,76.8
2023-03-02T17:36:13.046Z,77.7
2023-03-02T17:38:39.133Z,78.1
2023-03-02T17:41:05.220Z,78.2
2023-03-02T17:43:31.323Z,78.3
2023-03-02T17:45:57.413Z,78.1
2023-03-02T17:48:23.527Z,77.7
2023-03-02T17:50:49.620Z,77.9
2023-03-02T17:53:15.701Z,78.4
2023-03-02T17:55:41.800Z,78.5
2023-03-02T17:58:07.891Z,78.8
2023-03-02T18:00:33.996Z,78.7
2023-03-02T18:03:00.079Z,78.8
2023-03-02T18:05:26.189Z,78.6
2023-03-02T18:07:52.306Z,78.3
2023-03-02T18:10:18.381Z,78.2
2023-03-02T18:12:44.502Z,78.1
2023-03-02T18:15:10.721Z,78.1
2023-03-02T18:17:35.832Z,78.2
2023-03-02T18:20:01.928Z,78.4
2023-03-02T18:22:28.016Z,78.4
2023-03-02T18:24:54.105Z,78.8
2023-03-02T18:27:20.249Z,78.9
2023-03-02T18:29:46.303Z,79.2
2023-03-02T18:32:12.402Z,79.2
2023-03-02T18:34:38.489Z,79.3
2023-03-02T18:37:04.597Z,79.5
2023-03-02T18:39:30.755Z,79.7
2023-03-02T18:41:56.782Z,79.9
2023-03-02T18:44:22.879Z,80
2023-03-02T18:46:48.970Z,80.5
2023-03-02T18:49:14.080Z,80.7
2023-03-02T18:51:40.174Z,80.9
2023-03-02T18:54:06.271Z,80.8
2023-03-02T18:56:32.355Z,81.1
2023-03-02T18:58:58.488Z,81.2
2023-03-02T19:01:24.577Z,81
2023-03-02T19:03:50.657Z,81.1
2023-03-02T19:06:15.769Z,81
2023-03-02T19:08:40.901Z,80.9
2023-03-02T19:11:06.018Z,81.1
2023-03-02T19:13:31.262Z,81.1
2023-03-02T19:15:57.231Z,81.4
2023-03-02T19:18:23.332Z,81.7
2023-03-02T19:20:49.500Z,81.9
2023-03-02T19:23:15.585Z,81.9
2023-03-02T19:25:41.603Z,81.9
2023-03-02T19:28:07.770Z,82
2023-03-02T19:30:33.804Z,82
2023-03-02T19:32:59.943Z,82.1
2023-03-02T19:35:26.041Z,82.1
2023-03-02T19:37:52.095Z,82.5
2023-03-02T19:40:18.182Z,82.7
2023-03-02T19:42:44.277Z,82.8
2023-03-02T19:45:09.423Z,82.8
2023-03-02T19:47:35.538Z,83.2
2023-03-02T19:50:01.589Z,83.5
2023-03-02T19:52:27.696Z,83.6
2023-03-02T19:54:53.939Z,83.9
2023-03-02T19:57:19.934Z,84.1
2023-03-02T19:59:45.976Z,84.3
2023-03-02T20:02:11.106Z,84.7
2023-03-02T20:04:36.210Z,85
2023-03-02T20:07:02.418Z,85.3
2023-03-02T20:09:28.448Z,85.5
2023-03-02T20:11:54.560Z,85.8
2023-03-02T20:14:20.646Z,86.2
2023-03-02T20:16:46.684Z,86.4
2023-03-02T20:19:12.781Z,86.5
2023-03-02T20:21:38.887Z,87
2023-03-02T20:24:05.030Z,87.4
2023-03-02T20:26:31.065Z,87.7
2023-03-02T20:28:57.178Z,87.8
2023-03-02T20:31:23.264Z,88.3
2023-03-02T20:33:49.382Z,88.8
2023-03-02T20:36:14.509Z,89.3
2023-03-02T20:38:40.560Z,89.5
2023-03-02T20:41:06.680Z,89.8
2023-03-02T20:43:32.771Z,90.2
2023-03-02T20:45:58.838Z,90.4
2023-03-02T20:48:24.949Z,90.6
2023-03-02T20:50:51.053Z,91
2023-03-02T20:53:16.219Z,91.5
2023-03-02T20:55:41.368Z,91.7
2023-03-02T20:58:06.414Z,91.9
2023-03-02T21:00:31.542Z,92
2023-03-02T21:02:57.767Z,92.2
2023-03-02T21:05:23.737Z,92.4
2023-03-02T21:07:49.802Z,92.7
2023-03-02T21:10:15.921Z,92.9
2023-03-02T21:12:42.006Z,93.1
2023-03-02T21:15:08.192Z,93.1
2023-03-02T21:17:34.228Z,93.3
2023-03-02T21:20:00.301Z,93.4
2023-03-02T21:22:26.386Z,93.4
2023-03-02T21:24:52.547Z,93.5
2023-03-02T21:27:18.580Z,93.6
2023-03-02T21:29:44.691Z,93.9
2023-03-02T21:32:09.839Z,93.9
2023-03-02T21:34:35.886Z,94.2
2023-03-02T21:37:01.989Z,94.2
2023-03-02T21:39:28.214Z,94.3
2023-03-02T21:41:54.341Z,94.7
2023-03-02T21:44:20.317Z,94.9
2023-03-02T21:46:46.482Z,95
2023-03-02T21:49:11.501Z,95
2023-03-02T21:51:36.659Z,95
2023-03-02T21:54:02.724Z,95
2023-03-02T21:56:28.798Z,95.1
2023-03-02T21:58:54.936Z,95.4
2023-03-02T22:01:21.017Z,95.6
2023-03-02T22:03:47.122Z,95.6
2023-03-02T22:06:13.197Z,95.7
2023-03-02T22:08:39.288Z,95.6
2023-03-02T22:11:05.442Z,95.7
2023-03-02T22:13:31.474Z,95.9
2023-03-02T22:15:57.589Z,96
2023-03-02T22:18:23.681Z,96
2023-03-02T22:20:49.766Z,96.3
2023-03-02T22:23:14.900Z,96.6
2023-03-02T22:25:40.986Z,96.6
2023-03-02T22:28:07.093Z,96.8
2023-03-02T22:30:33.170Z,96.9
2023-03-02T22:32:59.267Z,97.1
2023-03-02T22:35:25.408Z,97.2
2023-03-02T22:37:51.463Z,97
2023-03-02T22:40:17.581Z,96.9
2023-03-02T22:42:43.753Z,97
2023-03-02T22:45:08.794Z,97.3
2023-03-02T22:47:33.941Z,97.4
2023-03-02T22:49:59.066Z,97.5
2023-03-02T22:52:24.165Z,97.5
2023-03-02T22:54:49.334Z,97.7
2023-03-02T22:57:14.552Z,97.9
2023-03-02T22:59:39.517Z,98.1
2023-03-02T23:02:04.626Z,98.2
2023-03-02T23:04:30.715Z,98.1
2023-03-02T23:06:56.824Z,98.1
2023-03-02T23:09:22.919Z,98.1
2023-03-02T23:11:49.025Z,98.2
2023-03-02T23:14:15.131Z,98.3
2023-03-02T23:16:41.207Z,98.2
2023-03-02T23:19:07.384Z,98.3
2023-03-02T23:21:33.412Z,98.2
2023-03-02T23:23:59.531Z,98.2
2023-03-02T23:26:25.604Z,98.2
2023-03-02T23:28:51.920Z,98.2
2023-03-02T23:31:17.789Z,98.2
2023-03-02T23:33:42.925Z,98.4
2023-03-02T23:36:09.009Z,98.6
2023-03-02T23:38:35.109Z,98.7
2023-03-02T23:41:01.199Z,98.6
2023-03-02T23:43:27.300Z,98.6
2023-03-02T23:45:53.435Z,98.4
2023-03-02T23:48:19.499Z,98.4
2023-03-02T23:50:44.624Z,98.7
2023-03-02T23:53:09.732Z,98.8
2023-03-02T23:55:34.841Z,98.9
2023-03-02T23:57:59.986Z,98.9
